Los Alcazares, Spain
Current Conditions -  °F | °C
As of 4:00 PM on Wednesday 22 Oct 2014 (Local Time) from LELC Reporting Station
Clear Clear  
Wind Chill: 75°   Ceiling: Unl
Heat Index: 75°   Visibility: 6mi
Dew Point: 61°   Wind: 9mph
Humidity: 61%   Direction: 70°ENE
Pressure: 30.18"   Gusts: NA
Location:  37.74°N, 0.85°W
Report Text: LELC 221400Z 07008KT 030V110 CAVOK 24/16 Q1022 NOSIG
Loading
Personal Weather Stations






























Interactive Weather Map
Tropical Storm Tracking
New forecast layout! Learn more

10-Day Weather Forecast

Advertisements
Track Severe Weather on mobile